sensor_id;sensor_type;location;lat;lon;timestamp;pressure;altitude;pressure_sealevel;temperature
80962;BMP280;70424;55.154;14.722;2023-08-06T00:00:01;100993.19;;;17.26
80962;BMP280;70424;55.154;14.722;2023-08-06T00:02:28;100992.38;;;17.24
80962;BMP280;70424;55.154;14.722;2023-08-06T00:04:53;100985.44;;;17.23
80962;BMP280;70424;55.154;14.722;2023-08-06T00:07:18;100989.47;;;17.20
80962;BMP280;70424;55.154;14.722;2023-08-06T00:09:45;100986.00;;;17.19
80962;BMP280;70424;55.154;14.722;2023-08-06T00:12:10;100988.78;;;17.19
80962;BMP280;70424;55.154;14.722;2023-08-06T00:14:35;100973.53;;;17.18
80962;BMP280;70424;55.154;14.722;2023-08-06T00:17:01;100978.44;;;17.20
80962;BMP280;70424;55.154;14.722;2023-08-06T00:19:26;100970.16;;;17.20
80962;BMP280;70424;55.154;14.722;2023-08-06T00:21:51;100970.16;;;17.20
80962;BMP280;70424;55.154;14.722;2023-08-06T00:24:17;100981.09;;;17.18
80962;BMP280;70424;55.154;14.722;2023-08-06T00:26:42;100980.31;;;17.15
80962;BMP280;70424;55.154;14.722;2023-08-06T00:29:07;100975.41;;;17.14
80962;BMP280;70424;55.154;14.722;2023-08-06T00:31:32;100972.66;;;17.14
80962;BMP280;70424;55.154;14.722;2023-08-06T00:33:58;100974.06;;;17.15
80962;BMP280;70424;55.154;14.722;2023-08-06T00:36:23;100980.94;;;17.14
80962;BMP280;70424;55.154;14.722;2023-08-06T00:38:48;100961.19;;;17.03
80962;BMP280;70424;55.154;14.722;2023-08-06T00:41:14;100969.72;;;17.10
80962;BMP280;70424;55.154;14.722;2023-08-06T00:43:40;100957.91;;;17.07
80962;BMP280;70424;55.154;14.722;2023-08-06T00:46:05;100955.91;;;17.10
80962;BMP280;70424;55.154;14.722;2023-08-06T00:48:31;100946.91;;;17.09
80962;BMP280;70424;55.154;14.722;2023-08-06T00:50:56;100948.25;;;17.08
80962;BMP280;70424;55.154;14.722;2023-08-06T00:53:21;100952.31;;;17.05
80962;BMP280;70424;55.154;14.722;2023-08-06T00:55:47;100944.00;;;17.05
80962;BMP280;70424;55.154;14.722;2023-08-06T00:58:14;100946.88;;;17.07
80962;BMP280;70424;55.154;14.722;2023-08-06T01:00:40;100942.56;;;17.04
80962;BMP280;70424;55.154;14.722;2023-08-06T01:03:06;100938.50;;;17.05
80962;BMP280;70424;55.154;14.722;2023-08-06T01:05:31;100934.91;;;17.02
80962;BMP280;70424;55.154;14.722;2023-08-06T01:08:37;100923.81;;;17.00
80962;BMP280;70424;55.154;14.722;2023-08-06T01:13:39;100932.63;;;16.97
80962;BMP280;70424;55.154;14.722;2023-08-06T01:16:06;100922.84;;;16.94
80962;BMP280;70424;55.154;14.722;2023-08-06T01:18:31;100932.47;;;16.93
80962;BMP280;70424;55.154;14.722;2023-08-06T01:20:57;100931.75;;;16.92
80962;BMP280;70424;55.154;14.722;2023-08-06T01:23:23;100933.25;;;16.95
80962;BMP280;70424;55.154;14.722;2023-08-06T01:29:15;100932.00;;;16.98
80962;BMP280;70424;55.154;14.722;2023-08-06T01:31:43;100917.25;;;16.92
80962;BMP280;70424;55.154;14.722;2023-08-06T01:34:10;100921.44;;;16.93
80962;BMP280;70424;55.154;14.722;2023-08-06T01:36:36;100924.31;;;16.97
80962;BMP280;70424;55.154;14.722;2023-08-06T01:39:01;100920.97;;;16.98
80962;BMP280;70424;55.154;14.722;2023-08-06T01:41:27;100910.00;;;17.00
80962;BMP280;70424;55.154;14.722;2023-08-06T01:43:52;100916.94;;;17.01
80962;BMP280;70424;55.154;14.722;2023-08-06T01:46:18;100922.53;;;17.03
80962;BMP280;70424;55.154;14.722;2023-08-06T01:48:43;100920.41;;;17.02
80962;BMP280;70424;55.154;14.722;2023-08-06T01:51:08;100907.28;;;17.02
80962;BMP280;70424;55.154;14.722;2023-08-06T01:53:34;100910.88;;;17.05
80962;BMP280;70424;55.154;14.722;2023-08-06T01:55:59;100905.44;;;17.07
80962;BMP280;70424;55.154;14.722;2023-08-06T01:58:24;100906.19;;;17.10
80962;BMP280;70424;55.154;14.722;2023-08-06T02:00:50;100897.28;;;17.11
80962;BMP280;70424;55.154;14.722;2023-08-06T02:03:15;100893.91;;;17.13
80962;BMP280;70424;55.154;14.722;2023-08-06T02:05:41;100889.88;;;17.16
80962;BMP280;70424;55.154;14.722;2023-08-06T02:08:06;100887.81;;;17.16
80962;BMP280;70424;55.154;14.722;2023-08-06T02:10:32;100893.44;;;17.18
80962;BMP280;70424;55.154;14.722;2023-08-06T02:12:57;100892.69;;;17.18
80962;BMP280;70424;55.154;14.722;2023-08-06T02:15:23;100892.00;;;17.17
80962;BMP280;70424;55.154;14.722;2023-08-06T02:17:48;100895.41;;;17.16
80962;BMP280;70424;55.154;14.722;2023-08-06T02:20:13;100883.72;;;17.17
80962;BMP280;70424;55.154;14.722;2023-08-06T02:22:38;100886.66;;;17.21
80962;BMP280;70424;55.154;14.722;2023-08-06T02:25:04;100895.09;;;17.25
80962;BMP280;70424;55.154;14.722;2023-08-06T02:27:30;100892.47;;;17.29
80962;BMP280;70424;55.154;14.722;2023-08-06T02:29:55;100893.03;;;17.26
80962;BMP280;70424;55.154;14.722;2023-08-06T02:32:20;100901.47;;;17.30
80962;BMP280;70424;55.154;14.722;2023-08-06T02:34:46;100904.31;;;17.32
80962;BMP280;70424;55.154;14.722;2023-08-06T02:37:11;100894.03;;;17.34
80962;BMP280;70424;55.154;14.722;2023-08-06T02:39:36;100889.22;;;17.35
80962;BMP280;70424;55.154;14.722;2023-08-06T02:42:07;100893.28;;;17.32
80962;BMP280;70424;55.154;14.722;2023-08-06T02:44:33;100875.84;;;17.27
80962;BMP280;70424;55.154;14.722;2023-08-06T02:46:59;100883.56;;;17.31
80962;BMP280;70424;55.154;14.722;2023-08-06T02:49:25;100874.63;;;17.32
80962;BMP280;70424;55.154;14.722;2023-08-06T02:51:50;100874.84;;;17.39
80962;BMP280;70424;55.154;14.722;2023-08-06T02:54:15;100874.22;;;17.40
80962;BMP280;70424;55.154;14.722;2023-08-06T02:56:45;100868.53;;;17.36
80962;BMP280;70424;55.154;14.722;2023-08-06T02:59:11;100864.44;;;17.37
80962;BMP280;70424;55.154;14.722;2023-08-06T03:01:36;100864.59;;;17.41
80962;BMP280;70424;55.154;14.722;2023-08-06T03:04:02;100854.28;;;17.44
80962;BMP280;70424;55.154;14.722;2023-08-06T03:06:27;100849.50;;;17.44
80962;BMP280;70424;55.154;14.722;2023-08-06T03:08:52;100833.00;;;17.46
80962;BMP280;70424;55.154;14.722;2023-08-06T03:11:18;100831.63;;;17.47
80962;BMP280;70424;55.154;14.722;2023-08-06T03:13:43;100833.72;;;17.47
80962;BMP280;70424;55.154;14.722;2023-08-06T03:16:08;100824.75;;;17.48
80962;BMP280;70424;55.154;14.722;2023-08-06T03:18:34;100817.13;;;17.47
80962;BMP280;70424;55.154;14.722;2023-08-06T03:20:59;100814.41;;;17.49
80962;BMP280;70424;55.154;14.722;2023-08-06T03:23:24;100809.00;;;17.51
80962;BMP280;70424;55.154;14.722;2023-08-06T03:25:50;100804.19;;;17.51
80962;BMP280;70424;55.154;14.722;2023-08-06T03:28:15;100802.81;;;17.52
80962;BMP280;70424;55.154;14.722;2023-08-06T03:30:40;100808.41;;;17.54
80962;BMP280;70424;55.154;14.722;2023-08-06T03:33:06;100802.31;;;17.58
80962;BMP280;70424;55.154;14.722;2023-08-06T03:35:31;100795.53;;;17.61
80962;BMP280;70424;55.154;14.722;2023-08-06T03:37:56;100777.03;;;17.46
80962;BMP280;70424;55.154;14.722;2023-08-06T03:40:22;100787.38;;;17.65
80962;BMP280;70424;55.154;14.722;2023-08-06T03:42:47;100793.03;;;17.69
80962;BMP280;70424;55.154;14.722;2023-08-06T03:45:13;100786.88;;;17.70
80962;BMP280;70424;55.154;14.722;2023-08-06T03:47:38;100785.53;;;17.72
80962;BMP280;70424;55.154;14.722;2023-08-06T03:50:04;100785.59;;;17.74
80962;BMP280;70424;55.154;14.722;2023-08-06T03:52:29;100788.41;;;17.76
80962;BMP280;70424;55.154;14.722;2023-08-06T03:54:54;100777.44;;;17.78
80962;BMP280;70424;55.154;14.722;2023-08-06T03:57:20;100767.88;;;17.81
80962;BMP280;70424;55.154;14.722;2023-08-06T03:59:45;100766.59;;;17.84
80962;BMP280;70424;55.154;14.722;2023-08-06T04:02:10;100763.22;;;17.87
80962;BMP280;70424;55.154;14.722;2023-08-06T04:04:36;100762.59;;;17.89
80962;BMP280;70424;55.154;14.722;2023-08-06T04:07:01;100759.91;;;17.91
80962;BMP280;70424;55.154;14.722;2023-08-06T04:09:28;100759.97;;;17.93
80962;BMP280;70424;55.154;14.722;2023-08-06T04:11:53;100755.84;;;17.94
80962;BMP280;70424;55.154;14.722;2023-08-06T04:14:19;100751.88;;;17.99
80962;BMP280;70424;55.154;14.722;2023-08-06T04:16:45;100755.41;;;18.01
80962;BMP280;70424;55.154;14.722;2023-08-06T04:19:10;100753.34;;;18.02
80962;BMP280;70424;55.154;14.722;2023-08-06T04:21:35;100738.97;;;18.05
80962;BMP280;70424;55.154;14.722;2023-08-06T04:24:01;100745.94;;;18.09
80962;BMP280;70424;55.154;14.722;2023-08-06T04:26:26;100733.56;;;18.10
80962;BMP280;70424;55.154;14.722;2023-08-06T04:28:51;100728.75;;;18.10
80962;BMP280;70424;55.154;14.722;2023-08-06T04:31:17;100726.72;;;18.13
80962;BMP280;70424;55.154;14.722;2023-08-06T04:33:42;100722.69;;;18.16
80962;BMP280;70424;55.154;14.722;2023-08-06T04:36:08;100721.25;;;18.15
80962;BMP280;70424;55.154;14.722;2023-08-06T04:38:33;100710.25;;;18.17
80962;BMP280;70424;55.154;14.722;2023-08-06T04:40:58;100708.97;;;18.20
80962;BMP280;70424;55.154;14.722;2023-08-06T04:43:24;100697.91;;;18.20
80962;BMP280;70424;55.154;14.722;2023-08-06T04:45:50;100702.91;;;18.25
80962;BMP280;70424;55.154;14.722;2023-08-06T04:48:16;100700.84;;;18.26
80962;BMP280;70424;55.154;14.722;2023-08-06T04:50:49;100699.44;;;18.25
80962;BMP280;70424;55.154;14.722;2023-08-06T04:53:15;100698.09;;;18.26
80962;BMP280;70424;55.154;14.722;2023-08-06T04:55:41;100689.75;;;18.24
80962;BMP280;70424;55.154;14.722;2023-08-06T04:58:08;100686.91;;;18.22
80962;BMP280;70424;55.154;14.722;2023-08-06T05:00:33;100689.03;;;18.23
80962;BMP280;70424;55.154;14.722;2023-08-06T05:02:59;100676.63;;;18.24
80962;BMP280;70424;55.154;14.722;2023-08-06T05:05:25;100674.03;;;18.30
80962;BMP280;70424;55.154;14.722;2023-08-06T05:07:51;100663.72;;;18.33
80962;BMP280;70424;55.154;14.722;2023-08-06T05:10:16;100667.25;;;18.35
80962;BMP280;70424;55.154;14.722;2023-08-06T05:12:41;100672.19;;;18.39
80962;BMP280;70424;55.154;14.722;2023-08-06T05:15:07;100666.09;;;18.43
80962;BMP280;70424;55.154;14.722;2023-08-06T05:17:33;100652.16;;;18.40
80962;BMP280;70424;55.154;14.722;2023-08-06T05:19:59;100653.69;;;18.44
80962;BMP280;70424;55.154;14.722;2023-08-06T05:22:24;100655.19;;;18.49
80962;BMP280;70424;55.154;14.722;2023-08-06T05:24:49;100653.22;;;18.53
80962;BMP280;70424;55.154;14.722;2023-08-06T05:27:15;100642.94;;;18.56
80962;BMP280;70424;55.154;14.722;2023-08-06T05:29:40;100643.13;;;18.62
80962;BMP280;70424;55.154;14.722;2023-08-06T05:32:06;100641.88;;;18.67
80962;BMP280;70424;55.154;14.722;2023-08-06T05:34:31;100639.97;;;18.73
80962;BMP280;70424;55.154;14.722;2023-08-06T05:36:57;100640.78;;;18.78
80962;BMP280;70424;55.154;14.722;2023-08-06T05:39:22;100632.59;;;18.82
80962;BMP280;70424;55.154;14.722;2023-08-06T05:41:47;100627.81;;;18.85
80962;BMP280;70424;55.154;14.722;2023-08-06T05:44:13;100623.09;;;18.89
80962;BMP280;70424;55.154;14.722;2023-08-06T05:46:38;100623.84;;;18.92
80962;BMP280;70424;55.154;14.722;2023-08-06T05:49:03;100621.91;;;18.96
80962;BMP280;70424;55.154;14.722;2023-08-06T05:51:30;100613.66;;;18.98
80962;BMP280;70424;55.154;14.722;2023-08-06T05:53:55;100609.63;;;19.03
80962;BMP280;70424;55.154;14.722;2023-08-06T05:56:20;100605.47;;;19.04
80962;BMP280;70424;55.154;14.722;2023-08-06T05:58:46;100600.56;;;19.01
80962;BMP280;70424;55.154;14.722;2023-08-06T06:01:12;100600.63;;;19.05
80962;BMP280;70424;55.154;14.722;2023-08-06T06:03:38;100597.25;;;19.06
80962;BMP280;70424;55.154;14.722;2023-08-06T06:06:03;100601.91;;;19.00
80962;BMP280;70424;55.154;14.722;2023-08-06T06:08:28;100604.56;;;18.96
80962;BMP280;70424;55.154;14.722;2023-08-06T06:10:54;100596.97;;;18.96
80962;BMP280;70424;55.154;14.722;2023-08-06T06:13:19;100604.09;;;19.03
80962;BMP280;70424;55.154;14.722;2023-08-06T06:15:46;100598.41;;;18.99
80962;BMP280;70424;55.154;14.722;2023-08-06T06:18:12;100599.75;;;18.96
80962;BMP280;70424;55.154;14.722;2023-08-06T06:20:37;100593.50;;;18.96
80962;BMP280;70424;55.154;14.722;2023-08-06T06:23:02;100585.19;;;18.96
80962;BMP280;70424;55.154;14.722;2023-08-06T06:25:28;100591.47;;;18.98
80962;BMP280;70424;55.154;14.722;2023-08-06T06:27:53;100581.78;;;18.99
80962;BMP280;70424;55.154;14.722;2023-08-06T06:30:18;100581.16;;;19.01
80962;BMP280;70424;55.154;14.722;2023-08-06T06:32:44;100573.66;;;19.05
80962;BMP280;70424;55.154;14.722;2023-08-06T06:35:09;100574.97;;;19.02
80962;BMP280;70424;55.154;14.722;2023-08-06T06:37:35;100580.47;;;19.00
80962;BMP280;70424;55.154;14.722;2023-08-06T06:40:00;100581.78;;;18.99
80962;BMP280;70424;55.154;14.722;2023-08-06T06:42:25;100574.88;;;18.98
80962;BMP280;70424;55.154;14.722;2023-08-06T06:44:51;100571.44;;;19.00
80962;BMP280;70424;55.154;14.722;2023-08-06T06:47:16;100571.53;;;19.04
80962;BMP280;70424;55.154;14.722;2023-08-06T06:49:42;100569.44;;;19.02
80962;BMP280;70424;55.154;14.722;2023-08-06T06:52:07;100574.28;;;19.04
80962;BMP280;70424;55.154;14.722;2023-08-06T06:54:32;100570.78;;;19.01
80962;BMP280;70424;55.154;14.722;2023-08-06T06:56:58;100577.03;;;19.02
80962;BMP280;70424;55.154;14.722;2023-08-06T06:59:23;100579.09;;;19.01
80962;BMP280;70424;55.154;14.722;2023-08-06T07:01:48;100578.47;;;19.05
80962;BMP280;70424;55.154;14.722;2023-08-06T07:04:14;100585.50;;;19.08
80962;BMP280;70424;55.154;14.722;2023-08-06T07:06:39;100587.59;;;19.09
80962;BMP280;70424;55.154;14.722;2023-08-06T07:09:04;100590.97;;;19.06
80962;BMP280;70424;55.154;14.722;2023-08-06T07:11:31;100587.50;;;19.05
80962;BMP280;70424;55.154;14.722;2023-08-06T07:13:57;100588.28;;;19.08
80962;BMP280;70424;55.154;14.722;2023-08-06T07:16:25;100591.06;;;19.08
80962;BMP280;70424;55.154;14.722;2023-08-06T07:18:52;100584.13;;;19.09
80962;BMP280;70424;55.154;14.722;2023-08-06T07:21:18;100582.78;;;19.10
80962;BMP280;70424;55.154;14.722;2023-08-06T07:23:43;100580.00;;;19.10
80962;BMP280;70424;55.154;14.722;2023-08-06T07:26:09;100582.13;;;19.11
80962;BMP280;70424;55.154;14.722;2023-08-06T07:28:34;100580.75;;;19.13
80962;BMP280;70424;55.154;14.722;2023-08-06T07:31:00;100577.88;;;19.08
80962;BMP280;70424;55.154;14.722;2023-08-06T07:33:27;100582.03;;;19.07
80962;BMP280;70424;55.154;14.722;2023-08-06T07:35:52;100574.28;;;19.02
80962;BMP280;70424;55.154;14.722;2023-08-06T07:38:18;100580.31;;;18.94
80962;BMP280;70424;55.154;14.722;2023-08-06T07:40:44;100567.59;;;18.85
80962;BMP280;70424;55.154;14.722;2023-08-06T07:43:09;100568.19;;;18.82
80962;BMP280;70424;55.154;14.722;2023-08-06T07:45:35;100561.13;;;18.76
80962;BMP280;70424;55.154;14.722;2023-08-06T07:48:01;100566.72;;;18.79
80962;BMP280;70424;55.154;14.722;2023-08-06T07:50:26;100562.56;;;18.77
80962;BMP280;70424;55.154;14.722;2023-08-06T07:52:51;100568.72;;;18.74
80962;BMP280;70424;55.154;14.722;2023-08-06T07:55:17;100565.84;;;18.72
80962;BMP280;70424;55.154;14.722;2023-08-06T07:57:42;100572.09;;;18.72
80962;BMP280;70424;55.154;14.722;2023-08-06T08:00:08;100566.56;;;18.72
80962;BMP280;70424;55.154;14.722;2023-08-06T08:02:34;100558.97;;;18.73
80962;BMP280;70424;55.154;14.722;2023-08-06T08:04:59;100563.88;;;18.74
80962;BMP280;70424;55.154;14.722;2023-08-06T08:07:25;100565.31;;;18.77
80962;BMP280;70424;55.154;14.722;2023-08-06T08:09:52;100559.78;;;18.77
80962;BMP280;70424;55.154;14.722;2023-08-06T08:12:18;100569.84;;;18.65
80962;BMP280;70424;55.154;14.722;2023-08-06T08:14:43;100570.44;;;18.61
80962;BMP280;70424;55.154;14.722;2023-08-06T08:17:10;100567.06;;;18.65
80962;BMP280;70424;55.154;14.722;2023-08-06T08:19:36;100555.28;;;18.64
80962;BMP280;70424;55.154;14.722;2023-08-06T08:22:01;100559.28;;;18.59
80962;BMP280;70424;55.154;14.722;2023-08-06T08:24:26;100556.34;;;18.53
80962;BMP280;70424;55.154;14.722;2023-08-06T08:26:52;100548.72;;;18.52
80962;BMP280;70424;55.154;14.722;2023-08-06T08:29:22;100545.25;;;18.51
80962;BMP280;70424;55.154;14.722;2023-08-06T08:31:48;100545.41;;;18.57
80962;BMP280;70424;55.154;14.722;2023-08-06T08:34:16;100542.78;;;18.63
80962;BMP280;70424;55.154;14.722;2023-08-06T08:36:41;100534.38;;;18.59
80962;BMP280;70424;55.154;14.722;2023-08-06T08:39:07;100540.00;;;18.61
80962;BMP280;70424;55.154;14.722;2023-08-06T08:41:33;100535.16;;;18.62
80962;BMP280;70424;55.154;14.722;2023-08-06T08:43:59;100523.13;;;18.53
80962;BMP280;70424;55.154;14.722;2023-08-06T08:46:29;100518.38;;;18.56
80962;BMP280;70424;55.154;14.722;2023-08-06T08:48:56;100523.47;;;18.65
80962;BMP280;70424;55.154;14.722;2023-08-06T08:51:23;100522.25;;;18.72
80962;BMP280;70424;55.154;14.722;2023-08-06T08:53:49;100522.38;;;18.76
80962;BMP280;70424;55.154;14.722;2023-08-06T08:56:16;100526.72;;;18.84
80962;BMP280;70424;55.154;14.722;2023-08-06T08:58:41;100518.94;;;18.78
80962;BMP280;70424;55.154;14.722;2023-08-06T09:01:07;100517.41;;;18.71
80962;BMP280;70424;55.154;14.722;2023-08-06T09:03:34;100522.72;;;18.63
80962;BMP280;70424;55.154;14.722;2023-08-06T09:06:02;100516.31;;;18.56
80962;BMP280;70424;55.154;14.722;2023-08-06T09:08:29;100515.53;;;18.54
80962;BMP280;70424;55.154;14.722;2023-08-06T09:10:57;100503.75;;;18.53
80962;BMP280;70424;55.154;14.722;2023-08-06T09:13:23;100514.97;;;18.57
80962;BMP280;70424;55.154;14.722;2023-08-06T09:15:48;100513.38;;;18.50
80962;BMP280;70424;55.154;14.722;2023-08-06T09:18:25;100521.53;;;18.44
80962;BMP280;70424;55.154;14.722;2023-08-06T09:20:50;100512.56;;;18.46
80962;BMP280;70424;55.154;14.722;2023-08-06T09:23:15;100509.78;;;18.44
80962;BMP280;70424;55.154;14.722;2023-08-06T09:25:41;100512.47;;;18.42
80962;BMP280;70424;55.154;14.722;2023-08-06T09:28:06;100501.72;;;18.28
80962;BMP280;70424;55.154;14.722;2023-08-06T09:30:33;100509.25;;;18.25
80962;BMP280;70424;55.154;14.722;2023-08-06T09:32:59;100504.78;;;18.14
80962;BMP280;70424;55.154;14.722;2023-08-06T09:35:24;100512.78;;;18.28
80962;BMP280;70424;55.154;14.722;2023-08-06T09:37:50;100512.84;;;18.30
80962;BMP280;70424;55.154;14.722;2023-08-06T09:40:26;100508.69;;;18.29
80962;BMP280;70424;55.154;14.722;2023-08-06T09:42:52;100499.72;;;18.30
80962;BMP280;70424;55.154;14.722;2023-08-06T09:45:17;100489.72;;;18.19
80962;BMP280;70424;55.154;14.722;2023-08-06T09:47:42;100483.81;;;18.05
80962;BMP280;70424;55.154;14.722;2023-08-06T09:50:35;100468.34;;;17.96
80962;BMP280;70424;55.154;14.722;2023-08-06T09:53:07;100470.38;;;17.95
80962;BMP280;70424;55.154;14.722;2023-08-06T09:55:36;100460.47;;;17.86
80962;BMP280;70424;55.154;14.722;2023-08-06T09:58:02;100456.22;;;17.59
80962;BMP280;70424;55.154;14.722;2023-08-06T10:00:28;100463.38;;;17.45
80962;BMP280;70424;55.154;14.722;2023-08-06T10:02:54;100452.06;;;17.36
80962;BMP280;70424;55.154;14.722;2023-08-06T10:05:24;100449.94;;;17.35
80962;BMP280;70424;55.154;14.722;2023-08-06T10:07:50;100441.59;;;17.33
80962;BMP280;70424;55.154;14.722;2023-08-06T10:10:16;100424.38;;;17.34
80962;BMP280;70424;55.154;14.722;2023-08-06T10:12:49;100416.84;;;17.37
80962;BMP280;70424;55.154;14.722;2023-08-06T10:15:26;100411.03;;;17.27
80962;BMP280;70424;55.154;14.722;2023-08-06T10:17:56;100386.19;;;17.27
80962;BMP280;70424;55.154;14.722;2023-08-06T10:20:21;100368.66;;;17.18
80962;BMP280;70424;55.154;14.722;2023-08-06T10:23:00;100371.66;;;17.05
80962;BMP280;70424;55.154;14.722;2023-08-06T10:25:26;100374.31;;;17.00
80962;BMP280;70424;55.154;14.722;2023-08-06T10:30:32;100333.44;;;17.19
80962;BMP280;70424;55.154;14.722;2023-08-06T10:33:04;100349.19;;;17.14
80962;BMP280;70424;55.154;14.722;2023-08-06T10:35:44;100356.53;;;17.06
80962;BMP280;70424;55.154;14.722;2023-08-06T10:38:12;100368.00;;;17.20
80962;BMP280;70424;55.154;14.722;2023-08-06T10:45:58;100398.00;;;17.08
80962;BMP280;70424;55.154;14.722;2023-08-06T10:48:40;100389.06;;;17.09
80962;BMP280;70424;55.154;14.722;2023-08-06T10:51:10;100363.50;;;17.09
80962;BMP280;70424;55.154;14.722;2023-08-06T10:53:36;100345.50;;;17.06
80962;BMP280;70424;55.154;14.722;2023-08-06T10:56:02;100328.81;;;17.01
80962;BMP280;70424;55.154;14.722;2023-08-06T10:58:36;100317.69;;;16.78
80962;BMP280;70424;55.154;14.722;2023-08-06T11:01:02;100325.94;;;16.76
80962;BMP280;70424;55.154;14.722;2023-08-06T11:03:27;100337.03;;;16.78
80962;BMP280;70424;55.154;14.722;2023-08-06T11:05:53;100347.69;;;16.87
80962;BMP280;70424;55.154;14.722;2023-08-06T11:08:26;100348.66;;;16.74
80962;BMP280;70424;55.154;14.722;2023-08-06T11:10:51;100338.63;;;16.63
80962;BMP280;70424;55.154;14.722;2023-08-06T11:13:17;100336.38;;;16.57
80962;BMP280;70424;55.154;14.722;2023-08-06T11:15:44;100341.16;;;16.55
80962;BMP280;70424;55.154;14.722;2023-08-06T11:18:09;100350.56;;;16.48
80962;BMP280;70424;55.154;14.722;2023-08-06T11:20:35;100340.97;;;16.29
80962;BMP280;70424;55.154;14.722;2023-08-06T11:23:01;100335.09;;;16.19
80962;BMP280;70424;55.154;14.722;2023-08-06T11:25:26;100323.03;;;16.08
80962;BMP280;70424;55.154;14.722;2023-08-06T11:27:52;100313.75;;;15.99
80962;BMP280;70424;55.154;14.722;2023-08-06T11:30:17;100297.59;;;15.90
80962;BMP280;70424;55.154;14.722;2023-08-06T11:32:46;100297.59;;;15.70
80962;BMP280;70424;55.154;14.722;2023-08-06T11:35:12;100287.75;;;15.65
80962;BMP280;70424;55.154;14.722;2023-08-06T11:37:39;100297.94;;;15.60
80962;BMP280;70424;55.154;14.722;2023-08-06T11:40:09;100303.53;;;15.62
80962;BMP280;70424;55.154;14.722;2023-08-06T11:42:36;100313.72;;;15.78
80962;BMP280;70424;55.154;14.722;2023-08-06T11:45:02;100310.38;;;15.81
80962;BMP280;70424;55.154;14.722;2023-08-06T11:47:28;100329.34;;;15.91
80962;BMP280;70424;55.154;14.722;2023-08-06T11:49:53;100333.66;;;15.96
80962;BMP280;70424;55.154;14.722;2023-08-06T11:52:24;100312.31;;;15.96
80962;BMP280;70424;55.154;14.722;2023-08-06T11:55:07;100278.63;;;16.00
80962;BMP280;70424;55.154;14.722;2023-08-06T11:57:36;100254.69;;;16.05
80962;BMP280;70424;55.154;14.722;2023-08-06T12:00:07;100263.78;;;16.09
80962;BMP280;70424;55.154;14.722;2023-08-06T12:02:33;100275.09;;;15.97
80962;BMP280;70424;55.154;14.722;2023-08-06T12:05:02;100281.19;;;15.94
80962;BMP280;70424;55.154;14.722;2023-08-06T12:07:30;100274.59;;;16.03
80962;BMP280;70424;55.154;14.722;2023-08-06T12:09:57;100267.22;;;16.08
80962;BMP280;70424;55.154;14.722;2023-08-06T12:12:23;100252.06;;;16.09
80962;BMP280;70424;55.154;14.722;2023-08-06T12:14:48;100249.81;;;16.03
80962;BMP280;70424;55.154;14.722;2023-08-06T12:17:14;100246.88;;;15.97
80962;BMP280;70424;55.154;14.722;2023-08-06T12:19:39;100237.47;;;15.84
80962;BMP280;70424;55.154;14.722;2023-08-06T12:22:04;100231.53;;;15.72
80962;BMP280;70424;55.154;14.722;2023-08-06T12:24:30;100232.16;;;15.71
80962;BMP280;70424;55.154;14.722;2023-08-06T12:26:57;100214.09;;;15.65
80962;BMP280;70424;55.154;14.722;2023-08-06T12:29:23;100215.72;;;15.73
80962;BMP280;70424;55.154;14.722;2023-08-06T12:31:48;100215.06;;;15.74
80962;BMP280;70424;55.154;14.722;2023-08-06T12:34:14;100214.38;;;15.74
80962;BMP280;70424;55.154;14.722;2023-08-06T12:36:39;100194.97;;;15.70
80962;BMP280;70424;55.154;14.722;2023-08-06T12:39:04;100185.09;;;15.62
80962;BMP280;70424;55.154;14.722;2023-08-06T12:41:30;100193.19;;;15.58
80962;BMP280;70424;55.154;14.722;2023-08-06T12:43:55;100182.13;;;15.56
80962;BMP280;70424;55.154;14.722;2023-08-06T12:46:20;100178.06;;;15.59
80962;BMP280;70424;55.154;14.722;2023-08-06T12:48:46;100183.56;;;15.59
80962;BMP280;70424;55.154;14.722;2023-08-06T12:51:13;100170.97;;;15.52
80962;BMP280;70424;55.154;14.722;2023-08-06T12:53:38;100158.56;;;15.53
80962;BMP280;70424;55.154;14.722;2023-08-06T12:56:04;100155.88;;;15.55
80962;BMP280;70424;55.154;14.722;2023-08-06T12:58:29;100158.53;;;15.51
80962;BMP280;70424;55.154;14.722;2023-08-06T13:00:54;100153.16;;;15.36
80962;BMP280;70424;55.154;14.722;2023-08-06T13:03:20;100146.72;;;15.29
80962;BMP280;70424;55.154;14.722;2023-08-06T13:05:45;100159.22;;;15.32
80962;BMP280;70424;55.154;14.722;2023-08-06T13:08:10;100126.16;;;15.30
80962;BMP280;70424;55.154;14.722;2023-08-06T13:10:36;100091.88;;;15.35
80962;BMP280;70424;55.154;14.722;2023-08-06T13:13:01;100084.53;;;15.22
80962;BMP280;70424;55.154;14.722;2023-08-06T13:15:26;100100.34;;;15.21
80962;BMP280;70424;55.154;14.722;2023-08-06T13:17:52;100101.91;;;15.26
80962;BMP280;70424;55.154;14.722;2023-08-06T13:20:17;100107.69;;;15.35
80962;BMP280;70424;55.154;14.722;2023-08-06T13:22:44;100099.91;;;15.29
80962;BMP280;70424;55.154;14.722;2023-08-06T13:25:12;100057.16;;;15.26
80962;BMP280;70424;55.154;14.722;2023-08-06T13:27:39;100024.19;;;15.28
80962;BMP280;70424;55.154;14.722;2023-08-06T13:30:05;100059.69;;;15.20
80962;BMP280;70424;55.154;14.722;2023-08-06T13:32:31;100072.59;;;15.15
80962;BMP280;70424;55.154;14.722;2023-08-06T13:34:57;100065.25;;;15.02
80962;BMP280;70424;55.154;14.722;2023-08-06T13:37:23;100049.41;;;15.01
80962;BMP280;70424;55.154;14.722;2023-08-06T13:39:48;100020.91;;;14.92
80962;BMP280;70424;55.154;14.722;2023-08-06T13:42:13;100019.06;;;14.98
80962;BMP280;70424;55.154;14.722;2023-08-06T13:44:39;100012.44;;;15.06
80962;BMP280;70424;55.154;14.722;2023-08-06T13:47:04;100011.13;;;15.09
80962;BMP280;70424;55.154;14.722;2023-08-06T13:49:29;100001.03;;;15.15
80962;BMP280;70424;55.154;14.722;2023-08-06T13:51:55;99985.31;;;15.18